Scratch — MKXQ6 — position and weather

sailwx.info

Track history (hours):
 
Tides and Currents Weather Stations Pressure Air Temp Water Temp Dewpoint Dewpoint Depression Visibility Wind Speed Wind Dir Waves Ship Positions

Scratch

Last reported at 2014-Jul-24 15:27 UTC. Time now 2014-Jul-24 16:57 UTC.
Position N 43°18' E 006°40'.

Length 27 m; draft 2 m.

MMSI: 235031887.

Date/timePositionNaut miles runAvg speedWind from/ knotsBaromVisibWave heightAir tempDewpointWater temp
2014-Jul-24 15:27N 43°18' E 006°40'5 4.9
2014-Jul-24 14:26N 43°13' E 006°40'0 0.3
2014-Jul-24 13:33N 43°13' E 006°41'125 5.6
2014-Jul-23 15:05N 42°50' E 009°29'  
2014-Jul-18 16:18N 41°23' E 009°03'1824.1
2014-Jul-18 15:33N 41°35' E 008°46'  
2014-Jul-15 08:28N 43°27' E 007°07'6 1.5
2014-Jul-15 04:32N 43°32' E 007°02'0 0.0
2014-Jul-15 03:27N 43°32' E 007°02'0 0.0
2014-Jul-15 01:28N 43°32' E 007°02'0 0.0
2014-Jul-14 23:06N 43°32' E 007°02'0 0.0
2014-Jul-14 22:13N 43°32' E 007°02'0 0.0
2014-Jul-14 20:08N 43°32' E 007°02'0 0.0
2014-Jul-14 19:22N 43°32' E 007°02'1 0.5
2014-Jul-14 17:19N 43°31' E 007°01'  
Track history (hours):
 
Tides and Currents Weather Stations Pressure Air Temp Water Temp Dewpoint Dewpoint Depression Visibility Wind Speed Wind Dir Waves Ship Positions

Scratch

Last reported at 2014-Jul-24 15:27 UTC. Time now 2014-Jul-24 16:57 UTC.
Position N 43°18' E 006°40'.

Length 27 m; draft 2 m.

MMSI: 235031887.

Date/timePositionNaut miles runAvg speedWind from/ knotsBaromVisibWave heightAir tempDewpointWater temp
2014-Jul-24 15:27N 43°18' E 006°40'5 4.9
2014-Jul-24 14:26N 43°13' E 006°40'0 0.3
2014-Jul-24 13:33N 43°13' E 006°41'125 5.6
2014-Jul-23 15:05N 42°50' E 009°29'  
2014-Jul-18 16:18N 41°23' E 009°03'1824.1
2014-Jul-18 15:33N 41°35' E 008°46'  
2014-Jul-15 08:28N 43°27' E 007°07'6 1.5
2014-Jul-15 04:32N 43°32' E 007°02'0 0.0
2014-Jul-15 03:27N 43°32' E 007°02'0 0.0
2014-Jul-15 01:28N 43°32' E 007°02'0 0.0
2014-Jul-14 23:06N 43°32' E 007°02'0 0.0
2014-Jul-14 22:13N 43°32' E 007°02'0 0.0
2014-Jul-14 20:08N 43°32' E 007°02'0 0.0
2014-Jul-14 19:22N 43°32' E 007°02'1 0.5
2014-Jul-14 17:19N 43°31' E 007°01'  

Dump ship's entire track history